createdAt,value
2018-09-23T00:01:21.150Z,10.90
2018-09-23T00:03:49.702Z,10.90
2018-09-23T00:06:18.262Z,10.90
2018-09-23T00:08:46.916Z,10.90
2018-09-23T00:11:15.508Z,10.90
2018-09-23T00:13:44.143Z,11.00
2018-09-23T00:16:12.755Z,10.90
2018-09-23T00:18:48.127Z,10.90
2018-09-23T00:21:16.661Z,10.90
2018-09-23T00:23:45.231Z,10.90
2018-09-23T00:26:13.859Z,10.90
2018-09-23T00:28:42.457Z,10.90
2018-09-23T00:31:11.022Z,10.90
2018-09-23T00:33:39.535Z,10.80
2018-09-23T00:36:08.125Z,10.80
2018-09-23T00:38:36.664Z,10.70
2018-09-23T00:41:05.219Z,10.70
2018-09-23T00:43:34.088Z,10.70
2018-09-23T00:46:02.675Z,10.70
2018-09-23T00:48:31.252Z,10.60
2018-09-23T00:50:59.787Z,10.70
2018-09-23T00:53:28.332Z,10.70
2018-09-23T00:55:56.858Z,10.60
2018-09-23T00:58:25.416Z,10.60
2018-09-23T01:00:53.948Z,10.70
2018-09-23T01:03:22.511Z,10.70
2018-09-23T01:05:51.050Z,10.70
2018-09-23T01:08:20.085Z,10.70
2018-09-23T01:10:48.619Z,10.70
2018-09-23T01:13:17.156Z,10.70
2018-09-23T01:15:45.700Z,10.70
2018-09-23T01:18:15.176Z,10.60
2018-09-23T01:20:43.723Z,10.60
2018-09-23T01:23:12.261Z,10.60
2018-09-23T01:25:40.771Z,10.60
2018-09-23T01:28:09.370Z,10.60
2018-09-23T01:30:37.922Z,10.70
2018-09-23T01:33:06.565Z,10.70
2018-09-23T01:35:35.233Z,10.70
2018-09-23T01:38:03.757Z,10.70
2018-09-23T01:40:32.296Z,10.70
2018-09-23T01:43:00.828Z,10.70
2018-09-23T01:45:29.431Z,10.70
2018-09-23T01:47:57.983Z,10.70
2018-09-23T01:50:26.519Z,10.70
2018-09-23T01:52:55.045Z,10.80
2018-09-23T01:55:23.610Z,10.80
2018-09-23T01:57:52.136Z,10.80
2018-09-23T02:00:21.320Z,10.80
2018-09-23T02:02:49.879Z,10.80
2018-09-23T02:05:18.418Z,10.80
2018-09-23T02:07:46.963Z,10.70
2018-09-23T02:10:15.566Z,10.70
2018-09-23T02:12:44.123Z,10.70
2018-09-23T02:15:12.682Z,10.70
2018-09-23T02:17:41.235Z,10.70
2018-09-23T02:20:09.804Z,10.60
2018-09-23T02:22:38.339Z,10.50
2018-09-23T02:25:06.563Z,10.50
2018-09-23T02:27:35.171Z,10.50
2018-09-23T02:30:03.806Z,10.40
2018-09-23T02:32:32.360Z,10.40
2018-09-23T02:35:00.887Z,10.40
2018-09-23T02:37:29.434Z,10.40
2018-09-23T02:39:57.989Z,10.40
2018-09-23T02:42:26.571Z,10.50
2018-09-23T02:44:55.160Z,10.50
2018-09-23T02:47:23.715Z,10.60
2018-09-23T02:49:52.231Z,10.60
2018-09-23T02:52:21.080Z,10.60
2018-09-23T02:54:49.690Z,10.50
2018-09-23T02:57:18.210Z,10.50
2018-09-23T02:59:46.743Z,10.50
2018-09-23T03:02:15.479Z,10.50
2018-09-23T03:04:44.029Z,10.50
2018-09-23T03:07:12.579Z,10.50
2018-09-23T03:09:41.123Z,10.50
2018-09-23T03:12:09.679Z,10.50
2018-09-23T03:14:38.248Z,10.40
2018-09-23T03:17:06.849Z,10.40
2018-09-23T03:19:35.392Z,10.40
2018-09-23T03:22:03.994Z,10.40
2018-09-23T03:24:32.496Z,10.40
2018-09-23T03:27:01.020Z,10.30
2018-09-23T03:29:29.536Z,10.30
2018-09-23T03:31:58.104Z,10.30
2018-09-23T03:34:26.645Z,10.30
2018-09-23T03:36:55.192Z,10.20
2018-09-23T03:39:23.809Z,10.20
2018-09-23T03:41:52.365Z,10.20
2018-09-23T03:44:21.138Z,10.20
2018-09-23T03:46:49.660Z,10.20
2018-09-23T03:49:18.265Z,10.20
2018-09-23T03:51:46.808Z,10.20
2018-09-23T03:54:16.231Z,10.30
2018-09-23T03:56:44.877Z,10.20
2018-09-23T03:59:13.707Z,10.20
2018-09-23T04:01:42.307Z,10.20
2018-09-23T04:04:10.905Z,10.20
2018-09-23T04:06:39.438Z,10.20
2018-09-23T04:09:08.534Z,10.20
2018-09-23T04:11:37.114Z,10.10
2018-09-23T04:14:05.796Z,10.20
2018-09-23T04:16:34.405Z,10.10
2018-09-23T04:19:02.977Z,10.10
2018-09-23T04:21:31.529Z,10.20
2018-09-23T04:24:00.087Z,10.20
2018-09-23T04:26:28.624Z,10.20
2018-09-23T04:28:57.220Z,10.20
2018-09-23T04:31:25.741Z,10.20
2018-09-23T04:33:54.286Z,10.20
2018-09-23T04:36:23.515Z,10.20
2018-09-23T04:38:52.041Z,10.20
2018-09-23T04:41:20.607Z,10.20
2018-09-23T04:43:49.161Z,10.20
2018-09-23T04:46:17.692Z,10.20
2018-09-23T04:48:46.324Z,10.20
2018-09-23T04:51:14.860Z,10.10
2018-09-23T04:53:43.408Z,10.20
2018-09-23T04:56:11.985Z,10.10
2018-09-23T04:58:40.507Z,10.10
2018-09-23T05:01:09.011Z,10.10
2018-09-23T05:03:37.681Z,10.10
2018-09-23T05:06:06.467Z,10.10
2018-09-23T05:08:35.004Z,10.20
2018-09-23T05:11:03.553Z,10.10
2018-09-23T05:13:32.111Z,10.20
2018-09-23T05:16:00.637Z,10.20
2018-09-23T05:18:29.194Z,10.10
2018-09-23T05:20:57.731Z,10.10
2018-09-23T05:23:26.369Z,10.10
2018-09-23T05:25:54.888Z,10.10
2018-09-23T05:28:23.950Z,10.10
2018-09-23T05:30:52.529Z,10.20
2018-09-23T05:33:21.087Z,10.20
2018-09-23T05:35:56.041Z,10.30
2018-09-23T05:38:25.033Z,10.30
2018-09-23T05:40:53.562Z,10.40
2018-09-23T05:43:22.152Z,10.40
2018-09-23T05:45:50.941Z,10.40
2018-09-23T05:48:19.492Z,10.40
2018-09-23T05:50:48.051Z,10.40
2018-09-23T05:53:16.665Z,10.50
2018-09-23T05:55:45.155Z,10.50
2018-09-23T05:58:13.680Z,10.50
2018-09-23T06:00:45.947Z,10.50
2018-09-23T06:03:14.534Z,10.50
2018-09-23T06:05:43.046Z,10.60
2018-09-23T06:08:11.589Z,10.60
2018-09-23T06:10:40.204Z,10.60
2018-09-23T06:13:08.860Z,10.70
2018-09-23T06:15:37.540Z,10.70
2018-09-23T06:18:06.335Z,10.70
2018-09-23T06:20:34.871Z,10.70
2018-09-23T06:23:03.412Z,10.80
2018-09-23T06:25:32.189Z,10.90
2018-09-23T06:28:00.703Z,10.90
2018-09-23T06:30:29.248Z,10.90
2018-09-23T06:32:57.799Z,11.00
2018-09-23T06:35:26.366Z,11.00
2018-09-23T06:37:54.913Z,11.00
2018-09-23T06:40:23.881Z,11.00
2018-09-23T06:42:52.435Z,11.10
2018-09-23T06:45:20.963Z,11.10
2018-09-23T06:47:49.561Z,11.10
2018-09-23T06:50:18.189Z,11.20
2018-09-23T06:52:46.796Z,11.20
2018-09-23T06:55:15.356Z,11.20
2018-09-23T06:57:43.886Z,11.30
2018-09-23T07:00:12.411Z,11.30
2018-09-23T07:02:40.986Z,11.30
2018-09-23T07:05:09.544Z,11.40
2018-09-23T07:07:38.214Z,11.40
2018-09-23T07:10:06.931Z,11.40
2018-09-23T07:12:35.460Z,11.40
2018-09-23T07:15:04.392Z,11.50
2018-09-23T07:17:32.936Z,11.50
2018-09-23T07:20:01.488Z,11.60
2018-09-23T07:22:30.083Z,11.60
2018-09-23T07:24:58.693Z,11.60
2018-09-23T07:27:27.288Z,11.70
2018-09-23T07:29:55.854Z,11.60
2018-09-23T07:32:25.437Z,11.60
2018-09-23T07:34:54.030Z,11.70
2018-09-23T07:37:22.592Z,11.70
2018-09-23T07:39:51.218Z,11.80
2018-09-23T07:42:19.730Z,11.80
2018-09-23T07:44:48.296Z,11.90
2018-09-23T07:47:16.851Z,11.90
2018-09-23T07:49:45.389Z,11.90
2018-09-23T07:52:13.934Z,11.90
2018-09-23T07:54:42.458Z,11.90
2018-09-23T07:57:11.016Z,11.90
2018-09-23T07:59:39.670Z,11.90
2018-09-23T08:02:08.223Z,11.80
2018-09-23T08:04:36.823Z,11.90
2018-09-23T08:07:05.415Z,12.00
2018-09-23T08:09:33.940Z,12.00
2018-09-23T08:12:02.560Z,12.00
2018-09-23T08:14:31.514Z,12.00
2018-09-23T08:16:59.729Z,12.00
2018-09-23T08:19:28.337Z,12.10
2018-09-23T08:21:56.809Z,12.20
2018-09-23T08:24:26.004Z,12.20
2018-09-23T08:26:54.576Z,12.20
2018-09-23T08:29:23.164Z,12.30
2018-09-23T08:31:51.724Z,12.40
2018-09-23T08:34:20.265Z,12.60
2018-09-23T08:36:48.824Z,12.70
2018-09-23T08:39:17.362Z,12.80
2018-09-23T08:41:45.880Z,12.90
2018-09-23T08:44:14.466Z,13.00
2018-09-23T08:46:43.012Z,12.90
2018-09-23T08:49:11.570Z,13.00
2018-09-23T08:51:40.266Z,13.20
2018-09-23T08:54:08.886Z,13.00
2018-09-23T08:56:37.434Z,13.00
2018-09-23T08:59:06.128Z,13.20
2018-09-23T09:01:34.672Z,13.30
2018-09-23T09:04:03.306Z,13.40
2018-09-23T09:06:31.860Z,13.30
2018-09-23T09:09:00.379Z,13.50
2018-09-23T09:11:28.948Z,13.40
2018-09-23T09:13:57.513Z,13.40
2018-09-23T09:16:26.475Z,13.50
2018-09-23T09:18:55.029Z,13.40
2018-09-23T09:21:23.608Z,13.40
2018-09-23T09:23:52.134Z,13.60
2018-09-23T09:26:21.452Z,13.70
2018-09-23T09:28:50.020Z,13.60
2018-09-23T09:31:18.613Z,13.70
2018-09-23T09:33:47.249Z,13.80
2018-09-23T09:36:15.853Z,13.90
2018-09-23T09:38:44.393Z,14.00
2018-09-23T09:41:13.001Z,14.00
2018-09-23T09:43:41.635Z,14.00
2018-09-23T09:46:16.787Z,14.00
2018-09-23T09:48:45.422Z,14.20
2018-09-23T09:51:14.305Z,14.20
2018-09-23T09:53:43.062Z,14.10
2018-09-23T09:56:11.653Z,14.00
2018-09-23T09:58:40.366Z,14.00
2018-09-23T10:01:08.968Z,14.10
2018-09-23T10:03:37.673Z,14.00
2018-09-23T10:06:06.209Z,14.00
2018-09-23T10:08:34.747Z,13.90
2018-09-23T10:11:03.297Z,14.00
2018-09-23T10:13:31.852Z,14.00
2018-09-23T10:16:00.417Z,14.00
2018-09-23T10:18:28.984Z,14.00
2018-09-23T10:20:57.544Z,14.00
2018-09-23T10:23:26.266Z,14.00
2018-09-23T10:25:54.905Z,14.10
2018-09-23T10:28:23.474Z,14.20
2018-09-23T10:30:52.230Z,14.30
2018-09-23T10:33:20.837Z,14.20
2018-09-23T10:35:49.450Z,14.30
2018-09-23T10:38:18.029Z,14.30
2018-09-23T10:40:46.612Z,14.50
2018-09-23T10:43:15.156Z,14.40
2018-09-23T10:45:43.704Z,14.30
2018-09-23T10:48:12.285Z,14.10
2018-09-23T10:50:40.845Z,14.00
2018-09-23T10:53:16.314Z,13.80
2018-09-23T10:55:45.003Z,13.80
2018-09-23T10:58:13.634Z,13.90
2018-09-23T11:00:42.256Z,14.10
2018-09-23T11:03:10.896Z,14.30
2018-09-23T11:05:39.572Z,14.40
2018-09-23T11:08:08.192Z,14.30
2018-09-23T11:10:36.828Z,14.10
2018-09-23T11:13:05.456Z,13.90
2018-09-23T11:15:34.048Z,14.00
2018-09-23T11:18:02.613Z,14.20
2018-09-23T11:20:31.183Z,14.20
2018-09-23T11:22:59.739Z,14.00
2018-09-23T11:25:28.298Z,13.90
2018-09-23T11:27:56.904Z,13.70
2018-09-23T11:30:26.616Z,13.60
2018-09-23T11:32:55.184Z,13.50
2018-09-23T11:35:23.729Z,13.60
2018-09-23T11:37:52.298Z,13.70
2018-09-23T11:40:20.937Z,13.90
2018-09-23T11:42:49.525Z,13.90
2018-09-23T11:45:18.099Z,13.90
2018-09-23T11:47:46.684Z,13.90
2018-09-23T11:50:15.266Z,13.90
2018-09-23T11:52:43.938Z,13.90
2018-09-23T11:55:12.489Z,14.00
2018-09-23T11:57:41.200Z,14.10
2018-09-23T12:00:09.897Z,14.10
2018-09-23T12:02:38.583Z,14.20
2018-09-23T12:05:07.171Z,14.10
2018-09-23T12:07:35.749Z,14.10
2018-09-23T12:10:04.408Z,14.00
2018-09-23T12:12:32.993Z,14.00
2018-09-23T12:15:01.619Z,14.10
2018-09-23T12:17:30.207Z,14.00
2018-09-23T12:19:58.774Z,14.10
2018-09-23T12:22:28.483Z,14.20
2018-09-23T12:24:57.031Z,14.20
2018-09-23T12:27:25.561Z,14.20
2018-09-23T12:29:54.133Z,14.30
2018-09-23T12:32:22.825Z,14.30
2018-09-23T12:34:51.481Z,14.30
2018-09-23T12:37:20.080Z,14.30
2018-09-23T12:39:48.691Z,14.30
2018-09-23T12:42:17.208Z,14.20
2018-09-23T12:44:45.763Z,14.20
2018-09-23T12:47:14.317Z,14.00
2018-09-23T12:49:42.887Z,14.00
2018-09-23T12:52:11.481Z,14.00
2018-09-23T12:54:40.001Z,14.00
2018-09-23T12:57:08.576Z,13.90
2018-09-23T12:59:37.186Z,14.00
2018-09-23T13:02:05.941Z,13.90
2018-09-23T13:04:34.625Z,13.90
2018-09-23T13:07:03.199Z,13.70
2018-09-23T13:09:31.785Z,13.70
2018-09-23T13:12:00.335Z,13.70
2018-09-23T13:14:29.281Z,13.70
2018-09-23T13:16:57.865Z,13.70
2018-09-23T13:19:26.467Z,13.80
2018-09-23T13:22:01.912Z,13.80
2018-09-23T13:24:30.581Z,13.90
2018-09-23T13:26:59.114Z,13.80
2018-09-23T13:29:27.726Z,13.90
2018-09-23T13:31:56.314Z,13.90
2018-09-23T13:34:24.957Z,13.80
2018-09-23T13:36:53.513Z,13.90
2018-09-23T13:39:22.081Z,13.90
2018-09-23T13:41:50.619Z,13.80
2018-09-23T13:44:19.177Z,13.70
2018-09-23T13:46:47.733Z,13.80
2018-09-23T13:49:16.280Z,13.80
2018-09-23T13:51:44.910Z,13.80
2018-09-23T13:54:13.504Z,13.90
2018-09-23T13:56:42.028Z,13.90
2018-09-23T13:59:10.621Z,13.90
2018-09-23T14:01:39.186Z,13.90
2018-09-23T14:04:07.978Z,14.00
2018-09-23T14:06:36.649Z,13.90
2018-09-23T14:09:06.134Z,13.80
2018-09-23T14:11:34.742Z,13.70
2018-09-23T14:14:03.294Z,13.70
2018-09-23T14:16:31.823Z,13.70
2018-09-23T14:19:00.443Z,13.70
2018-09-23T14:21:29.071Z,13.70
2018-09-23T14:23:57.644Z,13.60
2018-09-23T14:26:26.566Z,13.60
2018-09-23T14:28:55.166Z,13.70
2018-09-23T14:31:23.754Z,13.70
2018-09-23T14:33:52.298Z,13.70
2018-09-23T14:36:20.933Z,13.60
2018-09-23T14:38:49.493Z,13.60
2018-09-23T14:41:18.111Z,13.60
2018-09-23T14:43:46.771Z,13.50
2018-09-23T14:46:16.219Z,13.50
2018-09-23T14:48:44.817Z,13.50
2018-09-23T14:51:13.403Z,13.40
2018-09-23T14:53:42.073Z,13.40
2018-09-23T14:56:10.673Z,13.40
2018-09-23T14:58:39.242Z,13.40
2018-09-23T15:01:07.979Z,13.40
2018-09-23T15:03:36.544Z,13.40
2018-09-23T15:06:05.208Z,13.40
2018-09-23T15:08:33.922Z,13.40
2018-09-23T15:11:02.563Z,13.30
2018-09-23T15:13:31.168Z,13.30
2018-09-23T15:15:59.714Z,13.30
2018-09-23T15:18:28.868Z,13.30
2018-09-23T15:20:57.452Z,13.40
2018-09-23T15:23:26.384Z,13.40
2018-09-23T15:25:54.948Z,13.20
2018-09-23T15:28:23.577Z,13.20
2018-09-23T15:30:52.199Z,13.10
2018-09-23T15:33:20.764Z,13.20
2018-09-23T15:35:49.376Z,13.10
2018-09-23T15:38:18.074Z,13.00
2018-09-23T15:40:46.640Z,13.00
2018-09-23T15:43:15.176Z,13.00
2018-09-23T15:45:43.838Z,12.90
2018-09-23T15:48:12.413Z,12.90
2018-09-23T15:50:41.638Z,12.90
2018-09-23T15:53:10.231Z,12.90
2018-09-23T15:55:38.824Z,12.90
2018-09-23T15:58:07.508Z,12.90
2018-09-23T16:00:36.026Z,12.90
2018-09-23T16:03:04.559Z,12.80
2018-09-23T16:05:33.115Z,12.80
2018-09-23T16:08:01.760Z,12.80
2018-09-23T16:10:31.217Z,12.70
2018-09-23T16:12:59.762Z,12.70
2018-09-23T16:15:28.390Z,12.60
2018-09-23T16:17:56.952Z,12.60
2018-09-23T16:20:25.508Z,12.50
2018-09-23T16:22:54.052Z,12.50
2018-09-23T16:25:22.674Z,12.50
2018-09-23T16:27:51.261Z,12.50
2018-09-23T16:30:20.073Z,12.40
2018-09-23T16:32:48.669Z,12.40
2018-09-23T16:35:17.334Z,12.30
2018-09-23T16:37:46.017Z,12.30
2018-09-23T16:40:14.579Z,12.20
2018-09-23T16:42:43.239Z,12.20
2018-09-23T16:45:11.821Z,12.10
2018-09-23T16:47:41.010Z,12.10
2018-09-23T16:50:09.573Z,12.00
2018-09-23T16:52:38.286Z,12.00
2018-09-23T16:55:06.881Z,11.90
2018-09-23T16:57:35.573Z,11.90
2018-09-23T17:00:04.249Z,11.80
2018-09-23T17:02:32.828Z,11.80
2018-09-23T17:05:01.407Z,11.70
2018-09-23T17:07:29.978Z,11.70
2018-09-23T17:09:58.636Z,11.60
2018-09-23T17:12:27.273Z,11.60
2018-09-23T17:14:55.863Z,11.50
2018-09-23T17:17:24.440Z,11.50
2018-09-23T17:19:53.397Z,11.40
2018-09-23T17:22:21.964Z,11.40
2018-09-23T17:24:50.563Z,11.30
2018-09-23T17:27:20.027Z,11.20
2018-09-23T17:29:48.657Z,11.20
2018-09-23T17:32:17.212Z,11.10
2018-09-23T17:34:49.030Z,11.10
2018-09-23T17:37:17.557Z,11.00
2018-09-23T17:39:46.128Z,11.00
2018-09-23T17:42:14.703Z,10.90
2018-09-23T17:44:43.320Z,10.90
2018-09-23T17:47:11.881Z,10.90
2018-09-23T17:49:40.456Z,10.80
2018-09-23T17:52:09.039Z,10.80
2018-09-23T17:54:37.644Z,10.80
2018-09-23T17:57:06.288Z,10.80
2018-09-23T17:59:34.876Z,10.80
2018-09-23T18:02:03.556Z,10.80
2018-09-23T18:04:32.684Z,10.80
2018-09-23T18:07:01.311Z,10.80
2018-09-23T18:09:29.841Z,10.80
2018-09-23T18:11:58.505Z,10.70
2018-09-23T18:14:27.160Z,10.60
2018-09-23T18:16:55.706Z,10.50
2018-09-23T18:19:24.290Z,10.40
2018-09-23T18:21:52.887Z,10.30
2018-09-23T18:24:28.072Z,10.30
2018-09-23T18:26:56.666Z,10.10
2018-09-23T18:29:25.263Z,10.00
2018-09-23T18:31:53.942Z,9.90
2018-09-23T18:34:22.672Z,9.90
2018-09-23T18:36:51.331Z,9.80
2018-09-23T18:39:19.913Z,9.80
2018-09-23T18:41:48.581Z,9.70
2018-09-23T18:44:17.147Z,9.70
2018-09-23T18:46:45.786Z,9.70
2018-09-23T18:49:14.460Z,9.70
2018-09-23T18:51:43.110Z,9.70
2018-09-23T18:54:16.981Z,9.60
2018-09-23T18:56:45.658Z,9.60
2018-09-23T18:59:14.432Z,9.60
2018-09-23T19:01:42.996Z,9.50
2018-09-23T19:04:11.546Z,9.60
2018-09-23T19:06:40.166Z,9.60
2018-09-23T19:09:09.048Z,9.60
2018-09-23T19:11:39.723Z,9.50
2018-09-23T19:14:08.717Z,9.60
2018-09-23T19:16:37.357Z,9.60
2018-09-23T19:19:05.957Z,9.60
2018-09-23T19:21:34.564Z,9.60
2018-09-23T19:24:03.208Z,9.60
2018-09-23T19:26:32.633Z,9.50
2018-09-23T19:29:01.119Z,9.50
2018-09-23T19:31:29.721Z,9.40
2018-09-23T19:33:58.311Z,9.40
2018-09-23T19:36:26.877Z,9.40
2018-09-23T19:38:55.434Z,9.40
2018-09-23T19:41:24.064Z,9.40
2018-09-23T19:43:53.067Z,9.40
2018-09-23T19:46:21.713Z,9.40
2018-09-23T19:48:50.280Z,9.30
2018-09-23T19:51:18.951Z,9.30
2018-09-23T19:53:47.624Z,9.30
2018-09-23T19:56:16.291Z,9.20
2018-09-23T19:58:44.854Z,9.10
2018-09-23T20:01:13.470Z,9.10
2018-09-23T20:03:42.005Z,9.10
2018-09-23T20:06:10.749Z,9.00
2018-09-23T20:08:39.603Z,9.00
2018-09-23T20:11:08.163Z,9.00
2018-09-23T20:17:07.882Z,8.90
2018-09-23T20:19:36.628Z,8.90
2018-09-23T20:22:09.840Z,8.90
2018-09-23T20:24:38.667Z,8.90
2018-09-23T20:27:07.564Z,8.80
2018-09-23T20:29:36.601Z,8.70
2018-09-23T20:32:05.282Z,8.70
2018-09-23T20:34:34.705Z,8.70
2018-09-23T20:37:04.163Z,8.70
2018-09-23T20:39:32.827Z,8.70
2018-09-23T20:42:01.572Z,8.80
2018-09-23T20:44:30.255Z,8.90
2018-09-23T20:46:58.831Z,8.90
2018-09-23T20:49:27.431Z,8.90
2018-09-23T20:51:55.973Z,9.00
2018-09-23T20:54:24.492Z,9.00
2018-09-23T20:56:53.186Z,9.10
2018-09-23T20:59:21.696Z,9.20
2018-09-23T21:01:51.297Z,9.30
2018-09-23T21:04:50.256Z,9.30
2018-09-23T21:11:16.556Z,9.30
2018-09-23T21:13:45.194Z,9.40
2018-09-23T21:16:13.720Z,9.50
2018-09-23T21:18:42.299Z,9.50
2018-09-23T21:21:10.858Z,9.50
2018-09-23T21:23:39.401Z,9.50
2018-09-23T21:26:07.917Z,9.50
2018-09-23T21:28:36.459Z,9.50
2018-09-23T21:31:05.046Z,9.50
2018-09-23T21:33:33.591Z,9.50
2018-09-23T21:36:02.104Z,9.50
2018-09-23T21:38:30.751Z,9.50
2018-09-23T21:40:59.457Z,9.50
2018-09-23T21:43:28.021Z,9.60
2018-09-23T21:45:56.705Z,9.60
2018-09-23T21:48:25.245Z,9.60
2018-09-23T21:50:54.433Z,9.60
2018-09-23T21:53:22.960Z,9.60
2018-09-23T21:55:51.522Z,9.60
2018-09-23T21:58:20.066Z,9.60
2018-09-23T22:00:48.601Z,9.60
2018-09-23T22:03:17.368Z,9.70
2018-09-23T22:05:45.956Z,9.70
2018-09-23T22:08:14.508Z,9.70
2018-09-23T22:10:43.129Z,9.70
2018-09-23T22:13:11.661Z,9.70
2018-09-23T22:15:40.365Z,9.70
2018-09-23T22:18:08.921Z,9.80
2018-09-23T22:20:37.534Z,9.70
2018-09-23T22:23:06.152Z,9.70
2018-09-23T22:25:34.708Z,9.70
2018-09-23T22:28:03.255Z,9.70
2018-09-23T22:30:31.797Z,9.70
2018-09-23T22:33:00.340Z,9.70
2018-09-23T22:35:28.901Z,9.70
2018-09-23T22:37:57.454Z,9.70
2018-09-23T22:40:25.980Z,9.70
2018-09-23T22:42:54.520Z,9.80
2018-09-23T22:45:23.032Z,9.70
2018-09-23T22:47:51.565Z,9.70
2018-09-23T22:50:20.109Z,9.80
2018-09-23T22:52:48.649Z,9.80
2018-09-23T22:55:17.162Z,9.80
2018-09-23T22:57:45.768Z,9.80
2018-09-23T23:00:14.376Z,9.80
2018-09-23T23:02:42.902Z,9.80
2018-09-23T23:05:11.439Z,9.80
2018-09-23T23:07:39.967Z,9.80
2018-09-23T23:10:08.812Z,9.80
2018-09-23T23:12:37.372Z,9.90
2018-09-23T23:15:05.981Z,9.90
2018-09-23T23:17:34.573Z,10.00
2018-09-23T23:20:03.118Z,9.90
2018-09-23T23:22:31.685Z,9.90
2018-09-23T23:25:00.252Z,10.00
2018-09-23T23:27:28.804Z,9.90
2018-09-23T23:29:57.375Z,10.00
2018-09-23T23:32:25.920Z,9.90
2018-09-23T23:34:54.477Z,9.90
2018-09-23T23:37:23.082Z,9.90
2018-09-23T23:39:51.660Z,10.00
2018-09-23T23:42:20.242Z,10.00
2018-09-23T23:44:48.780Z,9.90
2018-09-23T23:47:17.364Z,9.90
2018-09-23T23:49:45.938Z,10.00
2018-09-23T23:52:14.499Z,10.00
2018-09-23T23:54:43.169Z,10.00
2018-09-23T23:57:11.720Z,10.10
2018-09-23T23:59:40.274Z,10.30
